Ana Sayfa
METAR-TAF:

METAR-TAF

Havaalanları :

Calgary-Springbank, Alberta, Kanada

Enlem: 51-06N, Boylam: 114-22W, yükseklik: 1200 m

Güncel hava durumu gözlemi

Rapor saat 02:00 UTC de 49 dakika önce yapıldı.
Rüzgar batıdan 14 kt
Sıcaklık 4°C
Nem 48%
Basınç 1016 hPa
Görüş mesafesi: 14.5 km
21000 ft yükseklikte parçalı bulutlu

METAR: CYBW 280200Z AUTO 28014KT 9SM SCT210 04/M06 A2999 RMK SLP192

Saat: 19:49 (02:49 UTC)

Tahmin

Rapor saat 23:38 UTC de 3 saat ve 11 dakika önce yapıldı.
Ayın 28'si saat 00 UTC'den ayın 28'si saat 05 UTC'ye kadar geçerli Tahmin
Rüzgar batıdan 15 kt ve 25 kt'a kadar ani rüzgarlar
Görüş mesafesi: 10 km
20000 ft yükseklikte parçalı çok bulutlu
Dönüşüyor
ayın 28'si saat 02 UTC'den ayın 28'si saat 04 UTC'ye kadar
Rüzgar batıdan 8 kt

TAF: CYBW 272338Z 2800/2805 27015G25KT P6SM BKN200 BECMG 2802/2804 27008KT RMK FCST BASED ON AUTO OBS. NXT FCST WILL BE ISSUED AT 281245Z

4.000'den fazla havaalanı için hava durumu gözlemleri ve tahminleri (METAR ve TAF raporları).

Kullanılabilir istasyonlar harita üzerinde sarı ve kırmızı noktalarla gösterilir.

İstasyonun adını görmek için fareyi noktanın üzerinde gezdirin.

Sonrasında hava gözlem ve tahminlerini görmek için tıklayın.

Haritayı değiştirmek için: yaklaştırmak için siyah artı işaretli yeşil düğmeye ve uzaklaştırmak için de eksi işaretli düğmeye hızla tıklayın; bitişik haritalar için yeşil okları kullanın.


METAR-TAF: